sensor_id;sensor_type;location;lat;lon;timestamp;P1;durP1;ratioP1;P2;durP2;ratioP2
39698;SDS011;25372;50.582;12.250;2023-06-26T00:08:10;3.08;;;2.40;;
39698;SDS011;25372;50.582;12.250;2023-06-26T00:18:32;5.85;;;2.70;;
39698;SDS011;25372;50.582;12.250;2023-06-26T00:28:53;4.38;;;3.05;;
39698;SDS011;25372;50.582;12.250;2023-06-26T00:39:15;6.05;;;3.38;;
39698;SDS011;25372;50.582;12.250;2023-06-26T00:49:36;4.22;;;2.55;;
39698;SDS011;25372;50.582;12.250;2023-06-26T00:59:58;4.90;;;2.88;;
39698;SDS011;25372;50.582;12.250;2023-06-26T01:10:23;6.60;;;3.17;;
39698;SDS011;25372;50.582;12.250;2023-06-26T01:20:48;6.25;;;2.88;;
39698;SDS011;25372;50.582;12.250;2023-06-26T01:31:10;5.20;;;2.88;;
39698;SDS011;25372;50.582;12.250;2023-06-26T01:41:31;4.93;;;2.33;;
39698;SDS011;25372;50.582;12.250;2023-06-26T01:51:55;4.40;;;3.03;;
39698;SDS011;25372;50.582;12.250;2023-06-26T02:02:22;3.55;;;2.33;;
39698;SDS011;25372;50.582;12.250;2023-06-26T02:12:45;3.75;;;2.50;;
39698;SDS011;25372;50.582;12.250;2023-06-26T02:23:07;3.92;;;2.50;;
39698;SDS011;25372;50.582;12.250;2023-06-26T02:33:30;6.85;;;3.80;;
39698;SDS011;25372;50.582;12.250;2023-06-26T02:43:51;6.78;;;3.13;;
39698;SDS011;25372;50.582;12.250;2023-06-26T02:54:14;5.53;;;3.10;;
39698;SDS011;25372;50.582;12.250;2023-06-26T03:04:37;4.03;;;2.80;;
39698;SDS011;25372;50.582;12.250;2023-06-26T03:15:03;4.17;;;2.77;;
39698;SDS011;25372;50.582;12.250;2023-06-26T03:25:25;6.60;;;2.92;;
39698;SDS011;25372;50.582;12.250;2023-06-26T03:36:02;5.32;;;3.22;;
39698;SDS011;25372;50.582;12.250;2023-06-26T03:46:25;5.20;;;3.27;;
39698;SDS011;25372;50.582;12.250;2023-06-26T03:56:47;6.82;;;3.05;;
39698;SDS011;25372;50.582;12.250;2023-06-26T04:07:08;5.68;;;3.67;;
39698;SDS011;25372;50.582;12.250;2023-06-26T04:17:32;5.75;;;3.38;;
39698;SDS011;25372;50.582;12.250;2023-06-26T04:27:52;6.47;;;3.47;;
39698;SDS011;25372;50.582;12.250;2023-06-26T04:38:14;4.80;;;2.95;;
39698;SDS011;25372;50.582;12.250;2023-06-26T04:48:35;4.70;;;3.10;;
39698;SDS011;25372;50.582;12.250;2023-06-26T04:58:57;3.92;;;2.35;;
39698;SDS011;25372;50.582;12.250;2023-06-26T05:09:18;3.88;;;2.92;;
39698;SDS011;25372;50.582;12.250;2023-06-26T05:19:40;6.30;;;2.47;;
39698;SDS011;25372;50.582;12.250;2023-06-26T05:30:01;2.70;;;2.10;;
39698;SDS011;25372;50.582;12.250;2023-06-26T05:40:24;3.60;;;2.30;;
39698;SDS011;25372;50.582;12.250;2023-06-26T05:50:46;5.20;;;2.40;;
39698;SDS011;25372;50.582;12.250;2023-06-26T06:01:08;4.50;;;2.67;;
39698;SDS011;25372;50.582;12.250;2023-06-26T06:11:29;3.65;;;2.50;;
39698;SDS011;25372;50.582;12.250;2023-06-26T06:21:50;5.75;;;2.47;;
39698;SDS011;25372;50.582;12.250;2023-06-26T06:32:11;6.75;;;2.60;;
39698;SDS011;25372;50.582;12.250;2023-06-26T06:42:33;4.18;;;3.10;;
39698;SDS011;25372;50.582;12.250;2023-06-26T06:52:55;5.00;;;3.08;;
39698;SDS011;25372;50.582;12.250;2023-06-26T07:03:17;3.38;;;2.47;;
39698;SDS011;25372;50.582;12.250;2023-06-26T07:13:40;4.57;;;2.83;;
39698;SDS011;25372;50.582;12.250;2023-06-26T07:24:02;3.95;;;2.60;;
39698;SDS011;25372;50.582;12.250;2023-06-26T07:34:23;4.90;;;2.00;;
39698;SDS011;25372;50.582;12.250;2023-06-26T07:44:45;3.05;;;2.20;;
39698;SDS011;25372;50.582;12.250;2023-06-26T07:55:06;5.28;;;2.97;;
39698;SDS011;25372;50.582;12.250;2023-06-26T08:05:28;3.67;;;2.38;;
39698;SDS011;25372;50.582;12.250;2023-06-26T08:15:49;5.55;;;3.00;;
39698;SDS011;25372;50.582;12.250;2023-06-26T08:26:11;5.85;;;2.83;;
39698;SDS011;25372;50.582;12.250;2023-06-26T08:36:32;5.40;;;2.28;;
39698;SDS011;25372;50.582;12.250;2023-06-26T08:46:54;5.25;;;2.33;;
39698;SDS011;25372;50.582;12.250;2023-06-26T08:57:15;4.03;;;2.20;;
39698;SDS011;25372;50.582;12.250;2023-06-26T09:07:40;3.38;;;2.13;;
39698;SDS011;25372;50.582;12.250;2023-06-26T09:18:00;4.40;;;3.00;;
39698;SDS011;25372;50.582;12.250;2023-06-26T09:28:23;7.83;;;2.50;;
39698;SDS011;25372;50.582;12.250;2023-06-26T09:38:44;1.77;;;1.60;;
39698;SDS011;25372;50.582;12.250;2023-06-26T09:49:07;3.08;;;2.20;;
39698;SDS011;25372;50.582;12.250;2023-06-26T09:59:29;2.08;;;1.88;;
39698;SDS011;25372;50.582;12.250;2023-06-26T10:09:51;2.30;;;1.58;;
39698;SDS011;25372;50.582;12.250;2023-06-26T10:20:15;4.05;;;2.10;;
39698;SDS011;25372;50.582;12.250;2023-06-26T10:30:39;4.05;;;2.20;;
39698;SDS011;25372;50.582;12.250;2023-06-26T10:41:00;3.30;;;2.30;;
39698;SDS011;25372;50.582;12.250;2023-06-26T10:51:32;4.40;;;2.53;;
39698;SDS011;25372;50.582;12.250;2023-06-26T11:01:56;3.38;;;2.00;;
39698;SDS011;25372;50.582;12.250;2023-06-26T11:22:57;3.58;;;2.03;;
39698;SDS011;25372;50.582;12.250;2023-06-26T11:33:26;2.47;;;1.95;;
39698;SDS011;25372;50.582;12.250;2023-06-26T11:43:47;6.90;;;2.88;;
39698;SDS011;25372;50.582;12.250;2023-06-26T11:54:09;5.82;;;2.78;;
39698;SDS011;25372;50.582;12.250;2023-06-26T12:04:31;4.00;;;1.75;;
39698;SDS011;25372;50.582;12.250;2023-06-26T12:14:55;2.90;;;2.08;;
39698;SDS011;25372;50.582;12.250;2023-06-26T12:25:21;2.33;;;1.70;;
39698;SDS011;25372;50.582;12.250;2023-06-26T12:35:44;3.45;;;2.40;;
39698;SDS011;25372;50.582;12.250;2023-06-26T12:46:05;3.30;;;2.20;;
39698;SDS011;25372;50.582;12.250;2023-06-26T12:56:27;5.60;;;2.58;;
39698;SDS011;25372;50.582;12.250;2023-06-26T13:06:48;2.40;;;1.95;;
39698;SDS011;25372;50.582;12.250;2023-06-26T13:17:11;2.67;;;2.20;;
39698;SDS011;25372;50.582;12.250;2023-06-26T13:27:32;3.27;;;2.17;;
39698;SDS011;25372;50.582;12.250;2023-06-26T13:37:54;3.20;;;2.28;;
39698;SDS011;25372;50.582;12.250;2023-06-26T13:48:15;3.08;;;2.08;;
39698;SDS011;25372;50.582;12.250;2023-06-26T13:58:37;4.68;;;2.85;;
39698;SDS011;25372;50.582;12.250;2023-06-26T14:08:59;3.47;;;2.30;;
39698;SDS011;25372;50.582;12.250;2023-06-26T14:19:21;2.17;;;1.83;;
39698;SDS011;25372;50.582;12.250;2023-06-26T14:29:42;2.65;;;2.13;;
39698;SDS011;25372;50.582;12.250;2023-06-26T14:40:04;5.45;;;2.53;;
39698;SDS011;25372;50.582;12.250;2023-06-26T14:50:26;3.47;;;2.42;;
39698;SDS011;25372;50.582;12.250;2023-06-26T15:00:48;4.30;;;2.58;;
39698;SDS011;25372;50.582;12.250;2023-06-26T15:11:09;3.77;;;2.47;;
39698;SDS011;25372;50.582;12.250;2023-06-26T15:21:31;5.47;;;2.95;;
39698;SDS011;25372;50.582;12.250;2023-06-26T15:31:52;4.32;;;2.67;;
39698;SDS011;25372;50.582;12.250;2023-06-26T15:42:14;4.43;;;2.47;;
39698;SDS011;25372;50.582;12.250;2023-06-26T15:52:35;4.45;;;2.40;;
39698;SDS011;25372;50.582;12.250;2023-06-26T16:02:57;3.28;;;2.10;;
39698;SDS011;25372;50.582;12.250;2023-06-26T16:13:18;5.18;;;3.15;;
39698;SDS011;25372;50.582;12.250;2023-06-26T16:23:42;5.05;;;3.38;;
39698;SDS011;25372;50.582;12.250;2023-06-26T16:34:03;8.38;;;4.38;;
39698;SDS011;25372;50.582;12.250;2023-06-26T16:44:25;7.82;;;4.28;;
39698;SDS011;25372;50.582;12.250;2023-06-26T16:54:46;4.35;;;2.97;;
39698;SDS011;25372;50.582;12.250;2023-06-26T17:05:08;7.07;;;3.42;;
39698;SDS011;25372;50.582;12.250;2023-06-26T17:15:29;9.02;;;4.13;;
39698;SDS011;25372;50.582;12.250;2023-06-26T17:25:52;8.77;;;4.70;;
39698;SDS011;25372;50.582;12.250;2023-06-26T17:36:13;10.02;;;6.15;;
39698;SDS011;25372;50.582;12.250;2023-06-26T17:46:35;8.55;;;5.07;;
39698;SDS011;25372;50.582;12.250;2023-06-26T17:56:56;8.60;;;5.20;;
39698;SDS011;25372;50.582;12.250;2023-06-26T18:07:18;7.05;;;5.15;;
39698;SDS011;25372;50.582;12.250;2023-06-26T18:17:40;7.90;;;4.70;;
39698;SDS011;25372;50.582;12.250;2023-06-26T18:28:03;7.63;;;4.78;;
39698;SDS011;25372;50.582;12.250;2023-06-26T18:38:23;10.30;;;5.82;;
39698;SDS011;25372;50.582;12.250;2023-06-26T18:48:46;9.43;;;5.25;;
39698;SDS011;25372;50.582;12.250;2023-06-26T18:59:07;9.88;;;5.72;;
39698;SDS011;25372;50.582;12.250;2023-06-26T19:09:29;9.85;;;5.53;;
39698;SDS011;25372;50.582;12.250;2023-06-26T19:19:50;7.30;;;4.75;;
39698;SDS011;25372;50.582;12.250;2023-06-26T19:30:14;11.15;;;6.80;;
39698;SDS011;25372;50.582;12.250;2023-06-26T19:40:35;11.00;;;6.00;;
39698;SDS011;25372;50.582;12.250;2023-06-26T19:50:58;7.68;;;4.53;;
39698;SDS011;25372;50.582;12.250;2023-06-26T20:01:19;8.45;;;5.18;;
39698;SDS011;25372;50.582;12.250;2023-06-26T20:11:41;10.63;;;5.45;;
39698;SDS011;25372;50.582;12.250;2023-06-26T20:22:02;8.93;;;5.93;;
39698;SDS011;25372;50.582;12.250;2023-06-26T20:32:24;10.07;;;6.13;;
39698;SDS011;25372;50.582;12.250;2023-06-26T20:42:45;10.20;;;5.82;;
39698;SDS011;25372;50.582;12.250;2023-06-26T20:53:07;9.45;;;5.05;;
39698;SDS011;25372;50.582;12.250;2023-06-26T21:03:28;8.93;;;6.25;;
39698;SDS011;25372;50.582;12.250;2023-06-26T21:13:50;10.27;;;6.32;;
39698;SDS011;25372;50.582;12.250;2023-06-26T21:24:11;9.18;;;5.72;;
39698;SDS011;25372;50.582;12.250;2023-06-26T21:34:33;8.57;;;5.45;;
39698;SDS011;25372;50.582;12.250;2023-06-26T21:44:54;11.02;;;6.47;;
39698;SDS011;25372;50.582;12.250;2023-06-26T21:55:16;11.48;;;7.18;;
39698;SDS011;25372;50.582;12.250;2023-06-26T22:05:36;10.20;;;6.82;;
39698;SDS011;25372;50.582;12.250;2023-06-26T22:15:59;11.57;;;6.78;;
39698;SDS011;25372;50.582;12.250;2023-06-26T22:26:19;10.73;;;6.90;;
39698;SDS011;25372;50.582;12.250;2023-06-26T22:36:42;9.60;;;6.30;;
39698;SDS011;25372;50.582;12.250;2023-06-26T22:47:04;8.73;;;5.38;;
39698;SDS011;25372;50.582;12.250;2023-06-26T22:57:26;9.85;;;5.57;;
39698;SDS011;25372;50.582;12.250;2023-06-26T23:07:47;9.43;;;5.20;;
39698;SDS011;25372;50.582;12.250;2023-06-26T23:18:09;9.93;;;6.30;;
39698;SDS011;25372;50.582;12.250;2023-06-26T23:28:30;6.20;;;4.57;;
39698;SDS011;25372;50.582;12.250;2023-06-26T23:38:53;4.25;;;3.03;;
39698;SDS011;25372;50.582;12.250;2023-06-26T23:49:14;2.83;;;2.22;;
39698;SDS011;25372;50.582;12.250;2023-06-26T23:59:37;5.30;;;2.97;;
